createdAt,value
2023-04-09T00:00:10.919Z,19.95
2023-04-09T00:02:21.701Z,16.73
2023-04-09T00:04:29.607Z,17.48
2023-04-09T00:06:37.412Z,17.42
2023-04-09T00:08:45.238Z,16.63
2023-04-09T00:10:53.066Z,15.93
2023-04-09T00:13:00.962Z,16.75
2023-04-09T00:15:20.691Z,16.10
2023-04-09T00:17:36.006Z,15.07
2023-04-09T00:19:43.862Z,17.60
2023-04-09T00:21:52.706Z,18.38
2023-04-09T00:24:00.858Z,18.38
2023-04-09T00:26:08.693Z,17.50
2023-04-09T00:28:16.933Z,18.00
2023-04-09T00:30:27.665Z,18.60
2023-04-09T00:32:35.695Z,20.17
2023-04-09T00:34:44.228Z,17.10
2023-04-09T00:36:52.077Z,18.83
2023-04-09T00:38:59.942Z,16.55
2023-04-09T00:41:08.032Z,16.67
2023-04-09T00:43:16.315Z,15.60
2023-04-09T00:45:24.533Z,15.85
2023-04-09T00:47:36.857Z,16.08
2023-04-09T00:49:44.888Z,16.08
2023-04-09T00:51:52.849Z,17.10
2023-04-09T00:54:00.796Z,16.45
2023-04-09T00:56:09.642Z,14.75
2023-04-09T00:58:17.896Z,15.98
2023-04-09T01:00:25.953Z,18.52
2023-04-09T01:02:36.919Z,17.10
2023-04-09T01:04:46.379Z,18.58
2023-04-09T01:06:56.676Z,15.90
2023-04-09T01:09:09.243Z,16.77
2023-04-09T01:11:27.093Z,16.35
2023-04-09T01:13:44.982Z,17.60
2023-04-09T01:15:57.460Z,16.42
2023-04-09T01:18:12.759Z,14.35
2023-04-09T01:20:25.806Z,15.82
2023-04-09T01:22:43.711Z,17.70
2023-04-09T01:25:03.344Z,16.50
2023-04-09T01:27:19.473Z,18.05
2023-04-09T01:29:42.017Z,17.50
2023-04-09T01:31:52.231Z,16.15
2023-04-09T01:34:00.804Z,15.82
2023-04-09T01:36:10.477Z,17.30
2023-04-09T01:38:21.021Z,17.75
2023-04-09T01:40:29.023Z,17.80
2023-04-09T01:42:38.806Z,18.05
2023-04-09T01:44:50.102Z,19.77
2023-04-09T01:46:59.069Z,19.17
2023-04-09T01:49:07.871Z,17.55
2023-04-09T01:51:17.744Z,17.55
2023-04-09T01:53:28.511Z,17.25
2023-04-09T01:55:36.364Z,17.38
2023-04-09T01:57:44.306Z,18.45
2023-04-09T01:59:54.965Z,17.90
2023-04-09T02:02:08.329Z,18.75
2023-04-09T02:04:23.140Z,17.90
2023-04-09T02:06:37.833Z,17.67
2023-04-09T02:08:49.506Z,18.92
2023-04-09T02:11:01.766Z,18.17
2023-04-09T02:13:16.518Z,17.75
2023-04-09T02:15:27.827Z,17.27
2023-04-09T02:17:35.856Z,18.30
2023-04-09T02:19:44.867Z,16.98
2023-04-09T02:21:52.835Z,16.65
2023-04-09T02:24:00.817Z,16.90
2023-04-09T02:26:08.610Z,17.58
2023-04-09T02:28:16.744Z,16.67
2023-04-09T02:30:27.666Z,15.73
2023-04-09T02:32:35.585Z,16.83
2023-04-09T02:34:43.564Z,15.68
2023-04-09T02:36:51.400Z,17.48
2023-04-09T02:38:59.318Z,16.40
2023-04-09T02:41:07.522Z,17.30
2023-04-09T02:43:15.392Z,16.13
2023-04-09T02:45:23.636Z,15.40
2023-04-09T02:47:34.233Z,17.38
2023-04-09T02:49:42.170Z,17.08
2023-04-09T02:51:50.205Z,16.30
2023-04-09T02:53:58.195Z,16.55
2023-04-09T02:56:06.682Z,17.17
2023-04-09T02:58:14.721Z,17.65
2023-04-09T03:00:22.790Z,17.58
2023-04-09T03:02:33.793Z,18.42
2023-04-09T03:04:41.928Z,16.98
2023-04-09T03:06:51.792Z,16.55
2023-04-09T03:08:59.628Z,16.27
2023-04-09T03:11:07.711Z,16.70
2023-04-09T03:13:15.548Z,18.67
2023-04-09T03:15:23.323Z,18.60
2023-04-09T03:17:33.788Z,17.63
2023-04-09T03:19:41.718Z,17.98
2023-04-09T03:21:51.104Z,18.85
2023-04-09T03:24:02.616Z,16.15
2023-04-09T03:26:10.675Z,19.40
2023-04-09T03:28:27.384Z,15.52
2023-04-09T03:30:35.814Z,17.52
2023-04-09T03:32:49.496Z,16.67
2023-04-09T03:34:57.735Z,17.58
2023-04-09T03:37:06.072Z,17.90
2023-04-09T03:39:14.357Z,16.30
2023-04-09T03:41:24.804Z,20.83
2023-04-09T03:43:33.140Z,16.05
2023-04-09T03:45:41.420Z,19.92
2023-04-09T03:48:21.222Z,17.20
2023-04-09T03:50:29.311Z,17.17
2023-04-09T03:52:47.042Z,18.00
2023-04-09T03:54:57.455Z,19.27
2023-04-09T03:57:07.152Z,15.82
2023-04-09T03:59:18.382Z,17.70
2023-04-09T04:01:28.300Z,17.35
2023-04-09T04:03:42.663Z,17.27
2023-04-09T04:06:05.121Z,17.15
2023-04-09T04:08:24.254Z,18.60
2023-04-09T04:10:32.277Z,17.00
2023-04-09T04:12:40.304Z,16.67
2023-04-09T04:14:56.092Z,16.42
2023-04-09T04:17:24.782Z,17.48
2023-04-09T04:19:36.243Z,16.88
2023-04-09T04:21:44.352Z,17.33
2023-04-09T04:23:52.245Z,17.33
2023-04-09T04:26:04.947Z,19.15
2023-04-09T04:28:18.941Z,17.80
2023-04-09T04:30:27.310Z,17.80
2023-04-09T04:32:47.324Z,17.92
2023-04-09T04:34:57.920Z,18.20
2023-04-09T04:37:07.262Z,18.30
2023-04-09T04:39:15.352Z,16.30
2023-04-09T04:41:37.729Z,19.95
2023-04-09T04:43:56.094Z,17.55
2023-04-09T04:46:06.393Z,20.90
2023-04-09T04:48:14.694Z,16.20
2023-04-09T04:50:25.168Z,18.83
2023-04-09T04:52:46.028Z,16.95
2023-04-09T04:54:53.969Z,16.98
2023-04-09T04:57:04.430Z,18.15
2023-04-09T04:59:22.364Z,18.27
2023-04-09T05:01:39.131Z,19.25
2023-04-09T05:03:51.421Z,19.27
2023-04-09T05:06:16.761Z,17.63
2023-04-09T05:08:26.888Z,16.98
2023-04-09T05:10:36.627Z,17.85
2023-04-09T05:12:44.553Z,16.65
2023-04-09T05:14:55.166Z,16.67
2023-04-09T05:17:03.371Z,17.55
2023-04-09T05:19:21.593Z,19.52
2023-04-09T05:21:38.179Z,17.80
2023-04-09T05:23:46.697Z,17.55
2023-04-09T05:25:54.677Z,18.67
2023-04-09T05:28:11.477Z,16.83
2023-04-09T05:30:21.454Z,16.23
2023-04-09T05:32:29.355Z,17.52
2023-04-09T05:34:38.400Z,16.00
2023-04-09T05:36:49.302Z,14.18
2023-04-09T05:38:57.839Z,14.70
2023-04-09T05:41:05.750Z,13.43
2023-04-09T05:43:15.763Z,13.13
2023-04-09T05:45:25.212Z,14.35
2023-04-09T05:47:34.465Z,14.40
2023-04-09T05:49:57.612Z,13.85
2023-04-09T05:52:08.446Z,13.82
2023-04-09T05:54:16.820Z,13.25
2023-04-09T05:56:25.441Z,14.85
2023-04-09T05:58:37.262Z,12.27
2023-04-09T06:00:45.201Z,12.18
2023-04-09T06:02:53.102Z,14.63
2023-04-09T06:05:01.009Z,14.38
2023-04-09T06:07:11.645Z,14.25
2023-04-09T06:09:19.534Z,13.30
2023-04-09T06:11:27.441Z,13.35
2023-04-09T06:13:35.359Z,13.70
2023-04-09T06:15:43.752Z,13.80
2023-04-09T06:17:51.635Z,12.93
2023-04-09T06:19:59.513Z,13.13
2023-04-09T06:22:07.630Z,13.43
2023-04-09T06:24:20.950Z,13.20
2023-04-09T06:26:28.771Z,12.98
2023-04-09T06:28:36.770Z,13.75
2023-04-09T06:30:44.797Z,12.05
2023-04-09T06:32:55.358Z,12.75
2023-04-09T06:35:03.762Z,12.93
2023-04-09T06:37:11.650Z,12.80
2023-04-09T06:39:22.235Z,12.50
2023-04-09T06:41:30.081Z,13.30
2023-04-09T06:43:37.921Z,13.07
2023-04-09T06:45:45.770Z,12.35
2023-04-09T06:47:53.618Z,11.43
2023-04-09T06:50:01.487Z,12.13
2023-04-09T06:52:09.793Z,13.03
2023-04-09T06:54:17.613Z,11.80
2023-04-09T06:56:28.178Z,12.20
2023-04-09T06:58:36.428Z,12.80
2023-04-09T07:00:44.377Z,12.70
2023-04-09T07:02:53.658Z,12.02
2023-04-09T07:05:01.900Z,11.93
2023-04-09T07:07:09.733Z,11.20
2023-04-09T07:09:18.712Z,11.60
2023-04-09T07:11:29.211Z,12.68
2023-04-09T07:13:37.120Z,11.15
2023-04-09T07:15:45.107Z,11.25
2023-04-09T07:17:53.014Z,11.15
2023-04-09T07:20:01.013Z,11.25
2023-04-09T07:22:08.897Z,9.95
2023-04-09T07:24:16.825Z,10.90
2023-04-09T07:26:24.639Z,11.10
2023-04-09T07:28:35.965Z,12.10
2023-04-09T07:30:43.849Z,11.45
2023-04-09T07:32:51.928Z,11.43
2023-04-09T07:35:00.247Z,11.40
2023-04-09T07:37:08.156Z,11.03
2023-04-09T07:39:15.992Z,12.00
2023-04-09T07:41:23.928Z,12.25
2023-04-09T07:43:34.961Z,12.18
2023-04-09T07:45:42.823Z,13.50
2023-04-09T07:47:50.863Z,12.05
2023-04-09T07:49:58.830Z,14.10
2023-04-09T07:52:07.634Z,14.40
2023-04-09T07:54:15.784Z,13.63
2023-04-09T07:56:23.699Z,12.10
2023-04-09T07:58:34.282Z,12.55
2023-04-09T08:00:42.334Z,12.40
2023-04-09T08:02:53.173Z,13.23
2023-04-09T08:05:01.989Z,13.52
2023-04-09T08:07:10.973Z,14.07
2023-04-09T08:09:19.598Z,13.48
2023-04-09T08:11:28.063Z,14.93
2023-04-09T08:13:38.732Z,13.60
2023-04-09T08:15:46.638Z,12.35
2023-04-09T08:17:54.647Z,16.20
2023-04-09T08:20:03.098Z,15.85
2023-04-09T08:22:11.564Z,20.98
2023-04-09T08:24:19.738Z,16.23
2023-04-09T08:26:27.690Z,13.13
2023-04-09T08:28:38.198Z,13.27
2023-04-09T08:30:47.867Z,13.77
2023-04-09T08:32:55.781Z,12.70
2023-04-09T08:35:03.684Z,13.07
2023-04-09T08:37:11.884Z,12.05
2023-04-09T08:39:21.076Z,12.18
2023-04-09T08:41:31.547Z,13.98
2023-04-09T08:43:57.031Z,14.20
2023-04-09T08:46:06.847Z,13.25
2023-04-09T08:48:17.222Z,13.48
2023-04-09T08:50:25.719Z,13.38
2023-04-09T08:52:35.633Z,13.95
2023-04-09T08:54:43.506Z,15.20
2023-04-09T08:56:51.523Z,13.40
2023-04-09T08:59:02.290Z,15.70
2023-04-09T09:01:22.725Z,12.57
2023-04-09T09:03:30.705Z,11.23
2023-04-09T09:05:40.815Z,11.48
2023-04-09T09:07:59.609Z,10.13
2023-04-09T09:10:08.228Z,12.02
2023-04-09T09:12:34.305Z,11.18
2023-04-09T09:14:45.020Z,10.73
2023-04-09T09:17:08.574Z,10.32
2023-04-09T09:19:33.666Z,11.45
2023-04-09T09:21:43.423Z,10.07
2023-04-09T09:23:51.490Z,11.93
2023-04-09T09:25:59.693Z,12.23
2023-04-09T09:28:14.440Z,12.00
2023-04-09T09:30:29.100Z,13.30
2023-04-09T09:32:37.857Z,11.45
2023-04-09T09:34:45.723Z,11.85
2023-04-09T09:36:54.715Z,12.07
2023-04-09T09:39:10.248Z,12.82
2023-04-09T09:41:21.985Z,11.55
2023-04-09T09:43:44.025Z,12.30
2023-04-09T09:45:59.162Z,10.70
2023-04-09T09:48:08.508Z,11.32
2023-04-09T09:50:19.612Z,11.98
2023-04-09T09:52:28.921Z,10.73
2023-04-09T09:54:51.258Z,10.30
2023-04-09T09:57:03.796Z,10.82
2023-04-09T09:59:19.069Z,11.10
2023-04-09T10:01:31.082Z,10.00
2023-04-09T10:03:40.774Z,11.15
2023-04-09T10:05:53.721Z,10.57
2023-04-09T10:08:03.379Z,10.98
2023-04-09T10:10:12.448Z,10.38
2023-04-09T10:12:25.279Z,9.65
2023-04-09T10:14:33.954Z,9.38
2023-04-09T10:16:44.845Z,9.13
2023-04-09T10:18:53.034Z,11.15
2023-04-09T10:21:03.465Z,10.00
2023-04-09T10:23:19.247Z,9.40
2023-04-09T10:25:27.332Z,11.50
2023-04-09T10:27:35.669Z,11.88
2023-04-09T10:29:50.844Z,10.80
2023-04-09T10:32:08.592Z,10.23
2023-04-09T10:34:19.252Z,10.35
2023-04-09T10:36:28.087Z,10.20
2023-04-09T10:38:43.822Z,9.52
2023-04-09T10:40:54.061Z,8.32
2023-04-09T10:43:04.186Z,8.57
2023-04-09T10:45:14.348Z,10.02
2023-04-09T10:47:35.184Z,9.23
2023-04-09T10:49:44.750Z,8.05
2023-04-09T10:51:58.347Z,8.40
2023-04-09T10:54:06.452Z,9.38
2023-04-09T10:56:19.446Z,8.23
2023-04-09T10:58:27.348Z,9.30
2023-04-09T11:00:39.754Z,9.05
2023-04-09T11:03:16.489Z,11.85
2023-04-09T11:05:36.634Z,8.93
2023-04-09T11:07:49.070Z,8.45
2023-04-09T11:09:56.895Z,8.30
2023-04-09T11:12:04.997Z,8.32
2023-04-09T11:14:12.888Z,8.35
2023-04-09T11:16:22.613Z,8.38
2023-04-09T11:18:37.406Z,8.65
2023-04-09T11:20:46.088Z,8.00
2023-04-09T11:22:55.328Z,8.73
2023-04-09T11:25:03.282Z,7.20
2023-04-09T11:27:11.290Z,7.65
2023-04-09T11:29:19.194Z,8.73
2023-04-09T11:31:31.902Z,7.82
2023-04-09T11:33:42.442Z,6.93
2023-04-09T11:35:50.728Z,6.75
2023-04-09T11:37:58.772Z,8.00
2023-04-09T11:40:07.116Z,7.05
2023-04-09T11:42:17.079Z,7.05
2023-04-09T11:44:24.982Z,10.30
2023-04-09T11:46:33.389Z,7.38
2023-04-09T11:48:44.062Z,7.15
2023-04-09T11:50:52.851Z,7.40
2023-04-09T11:53:01.269Z,8.60
2023-04-09T11:55:10.242Z,7.65
2023-04-09T11:57:18.330Z,8.00
2023-04-09T11:59:26.260Z,7.30
2023-04-09T12:01:34.898Z,7.15
2023-04-09T12:03:45.873Z,8.13
2023-04-09T12:05:54.042Z,11.38
2023-04-09T12:08:05.097Z,9.20
2023-04-09T12:10:14.124Z,7.55
2023-04-09T12:12:22.533Z,6.90
2023-04-09T12:14:31.304Z,7.20
2023-04-09T12:16:41.678Z,7.63
2023-04-09T12:18:55.966Z,8.00
2023-04-09T12:21:03.923Z,7.43
2023-04-09T12:23:12.582Z,8.38
2023-04-09T12:25:20.743Z,7.80
2023-04-09T12:27:28.625Z,8.48
2023-04-09T12:29:36.535Z,7.88
2023-04-09T12:31:44.625Z,6.68
2023-04-09T12:33:55.138Z,7.72
2023-04-09T12:36:03.103Z,6.50
2023-04-09T12:38:11.010Z,7.05
2023-04-09T12:40:19.840Z,6.72
2023-04-09T12:42:27.934Z,6.68
2023-04-09T12:44:37.308Z,7.30
2023-04-09T12:46:45.217Z,7.13
2023-04-09T12:48:56.011Z,7.68
2023-04-09T12:51:04.387Z,6.80
2023-04-09T12:53:12.280Z,7.18
2023-04-09T12:55:20.260Z,6.85
2023-04-09T12:57:28.309Z,7.70
2023-04-09T12:59:36.319Z,6.65
2023-04-09T13:01:44.321Z,5.72
2023-04-09T13:03:52.688Z,6.30
2023-04-09T13:06:03.551Z,6.07
2023-04-09T13:08:11.566Z,7.07
2023-04-09T13:10:19.877Z,6.00
2023-04-09T13:12:28.351Z,7.45
2023-04-09T13:14:36.689Z,7.07
2023-04-09T13:16:44.608Z,6.60
2023-04-09T13:18:52.686Z,6.78
2023-04-09T13:21:03.405Z,5.85
2023-04-09T13:23:11.336Z,6.65
2023-04-09T13:25:19.280Z,5.50
2023-04-09T13:27:27.228Z,6.70
2023-04-09T13:29:35.240Z,5.90
2023-04-09T13:31:43.250Z,6.32
2023-04-09T13:33:51.168Z,6.97
2023-04-09T13:35:59.127Z,7.28
2023-04-09T13:38:09.797Z,6.57
2023-04-09T13:40:17.900Z,6.20
2023-04-09T13:42:26.055Z,6.50
2023-04-09T13:44:34.008Z,6.38
2023-04-09T13:46:42.117Z,6.60
2023-04-09T13:48:50.155Z,6.55
2023-04-09T13:50:58.139Z,7.10
2023-04-09T13:53:06.829Z,6.25
2023-04-09T13:55:17.381Z,5.90
2023-04-09T13:57:25.332Z,6.28
2023-04-09T13:59:33.365Z,6.10
2023-04-09T14:01:41.578Z,5.63
2023-04-09T14:03:49.692Z,6.32
2023-04-09T14:05:57.657Z,6.80
2023-04-09T14:08:05.699Z,7.13
2023-04-09T14:10:14.265Z,6.72
2023-04-09T14:12:24.776Z,5.95
2023-04-09T14:14:32.656Z,6.13
2023-04-09T14:16:40.875Z,6.80
2023-04-09T14:18:48.880Z,7.63
2023-04-09T14:20:56.750Z,5.95
2023-04-09T14:23:04.706Z,7.40
2023-04-09T14:25:13.789Z,6.22
2023-04-09T14:27:24.287Z,6.80
2023-04-09T14:29:32.178Z,6.43
2023-04-09T14:31:42.073Z,7.38
2023-04-09T14:33:49.979Z,7.47
2023-04-09T14:35:59.008Z,7.20
2023-04-09T14:38:07.219Z,6.93
2023-04-09T14:40:15.882Z,8.20
2023-04-09T14:42:26.600Z,7.90
2023-04-09T14:44:34.651Z,8.75
2023-04-09T14:46:42.637Z,7.15
2023-04-09T14:48:50.914Z,7.00
2023-04-09T14:50:58.816Z,7.07
2023-04-09T14:53:06.843Z,6.80
2023-04-09T14:55:14.925Z,8.00
2023-04-09T14:57:22.788Z,7.15
2023-04-09T14:59:33.278Z,6.13
2023-04-09T15:01:41.209Z,6.80
2023-04-09T15:03:49.360Z,7.20
2023-04-09T15:05:57.297Z,7.25
2023-04-09T15:08:05.150Z,6.97
2023-04-09T15:10:14.044Z,6.30
2023-04-09T15:12:21.975Z,6.80
2023-04-09T15:14:34.269Z,6.97
2023-04-09T15:16:42.198Z,7.43
2023-04-09T15:18:52.402Z,6.90
2023-04-09T15:21:00.839Z,7.28
2023-04-09T15:23:08.729Z,7.00
2023-04-09T15:25:17.519Z,7.05
2023-04-09T15:27:25.516Z,7.00
2023-04-09T15:29:36.467Z,6.65
2023-04-09T15:31:44.412Z,7.30
2023-04-09T15:33:52.397Z,8.38
2023-04-09T15:36:00.268Z,6.78
2023-04-09T15:38:08.222Z,8.77
2023-04-09T15:40:16.590Z,8.93
2023-04-09T15:42:24.453Z,6.68
2023-04-09T15:44:32.328Z,6.35
2023-04-09T15:46:43.699Z,6.40
2023-04-09T15:48:51.703Z,6.53
2023-04-09T15:50:59.779Z,7.40
2023-04-09T15:53:07.611Z,6.80
2023-04-09T15:55:15.502Z,7.10
2023-04-09T15:57:23.890Z,8.02
2023-04-09T15:59:32.124Z,8.52
2023-04-09T16:01:40.121Z,6.40
2023-04-09T16:03:52.498Z,6.95
2023-04-09T16:06:04.009Z,6.95
2023-04-09T16:08:11.902Z,7.20
2023-04-09T16:10:19.910Z,7.35
2023-04-09T16:12:27.798Z,6.82
2023-04-09T16:14:35.644Z,7.10
2023-04-09T16:16:47.327Z,6.82
2023-04-09T16:18:58.034Z,7.03
2023-04-09T16:21:06.086Z,6.60
2023-04-09T16:23:14.022Z,5.85
2023-04-09T16:25:21.855Z,6.82
2023-04-09T16:27:29.751Z,6.07
2023-04-09T16:29:37.632Z,6.20
2023-04-09T16:31:46.310Z,5.97
2023-04-09T16:33:54.470Z,6.63
2023-04-09T16:36:05.480Z,6.60
2023-04-09T16:38:13.585Z,6.05
2023-04-09T16:40:24.553Z,6.03
2023-04-09T16:42:33.032Z,6.88
2023-04-09T16:44:41.031Z,6.47
2023-04-09T16:46:49.317Z,6.50
2023-04-09T16:48:57.324Z,6.75
2023-04-09T16:51:08.262Z,7.15
2023-04-09T16:53:16.243Z,6.30
2023-04-09T16:55:26.698Z,6.93
2023-04-09T16:57:34.725Z,6.15
2023-04-09T16:59:43.343Z,6.43
2023-04-09T17:01:51.982Z,6.50
2023-04-09T17:04:00.901Z,6.88
2023-04-09T17:06:11.534Z,6.78
2023-04-09T17:08:24.381Z,7.40
2023-04-09T17:10:32.454Z,6.47
2023-04-09T17:12:41.033Z,7.00
2023-04-09T17:14:49.138Z,6.60
2023-04-09T17:16:57.149Z,7.13
2023-04-09T17:19:05.087Z,7.20
2023-04-09T17:21:15.695Z,7.22
2023-04-09T17:23:23.624Z,6.18
2023-04-09T17:25:32.200Z,6.85
2023-04-09T17:27:40.105Z,7.13
2023-04-09T17:29:48.013Z,7.22
2023-04-09T17:31:56.087Z,7.10
2023-04-09T17:34:04.009Z,6.45
2023-04-09T17:36:11.975Z,6.80
2023-04-09T17:38:25.255Z,7.68
2023-04-09T17:40:33.189Z,7.32
2023-04-09T17:42:42.060Z,7.00
2023-04-09T17:44:49.987Z,7.10
2023-04-09T17:46:57.958Z,9.55
2023-04-09T17:49:06.067Z,7.47
2023-04-09T17:51:18.721Z,7.88
2023-04-09T17:53:29.254Z,7.90
2023-04-09T17:55:37.491Z,8.35
2023-04-09T17:57:45.762Z,7.78
2023-04-09T17:59:53.650Z,7.38
2023-04-09T18:02:02.365Z,8.27
2023-04-09T18:04:11.180Z,7.97
2023-04-09T18:06:19.310Z,8.50
2023-04-09T18:08:30.087Z,9.00
2023-04-09T18:10:38.164Z,8.00
2023-04-09T18:12:46.061Z,7.50
2023-04-09T18:14:54.069Z,7.65
2023-04-09T18:17:02.359Z,7.10
2023-04-09T18:19:12.039Z,8.57
2023-04-09T18:21:19.950Z,7.57
2023-04-09T18:23:30.460Z,8.25
2023-04-09T18:25:38.350Z,9.02
2023-04-09T18:27:46.418Z,8.15
2023-04-09T18:29:54.312Z,8.10
2023-04-09T18:32:02.463Z,10.00
2023-04-09T18:34:10.382Z,8.48
2023-04-09T18:36:19.499Z,8.77
2023-04-09T18:38:31.902Z,8.80
2023-04-09T18:40:44.000Z,8.95
2023-04-09T18:42:53.486Z,8.50
2023-04-09T18:45:01.478Z,8.35
2023-04-09T18:47:11.220Z,9.55
2023-04-09T18:49:19.690Z,8.65
2023-04-09T18:51:27.653Z,8.45
2023-04-09T18:53:38.309Z,12.23
2023-04-09T18:55:46.673Z,7.65
2023-04-09T18:57:54.674Z,9.77
2023-04-09T19:00:04.008Z,10.80
2023-04-09T19:02:12.038Z,8.73
2023-04-09T19:04:20.262Z,9.32
2023-04-09T19:06:28.447Z,8.68
2023-04-09T19:08:38.990Z,9.80
2023-04-09T19:10:47.953Z,9.52
2023-04-09T19:12:56.313Z,9.93
2023-04-09T19:15:05.122Z,10.15
2023-04-09T19:17:13.564Z,8.68
2023-04-09T19:19:21.531Z,9.50
2023-04-09T19:21:29.590Z,8.90
2023-04-09T19:23:40.408Z,8.60
2023-04-09T19:25:52.506Z,9.18
2023-04-09T19:28:00.514Z,10.23
2023-04-09T19:30:10.078Z,11.73
2023-04-09T19:32:18.063Z,10.75
2023-04-09T19:34:26.044Z,11.93
2023-04-09T19:36:34.203Z,9.57
2023-04-09T19:38:44.853Z,9.60
2023-04-09T19:40:52.766Z,10.00
2023-04-09T19:43:00.666Z,10.57
2023-04-09T19:45:09.849Z,9.63
2023-04-09T19:47:17.907Z,10.27
2023-04-09T19:49:26.039Z,9.85
2023-04-09T19:51:33.949Z,10.55
2023-04-09T19:53:46.121Z,10.88
2023-04-09T19:55:55.293Z,10.23
2023-04-09T19:58:03.352Z,10.68
2023-04-09T20:00:12.517Z,11.23
2023-04-09T20:02:20.488Z,14.02
2023-04-09T20:04:30.460Z,11.05
2023-04-09T20:06:38.468Z,10.98
2023-04-09T20:08:49.531Z,11.15
2023-04-09T20:10:57.461Z,10.77
2023-04-09T20:13:05.917Z,11.30
2023-04-09T20:15:14.883Z,11.70
2023-04-09T20:17:22.828Z,10.77
2023-04-09T20:19:30.835Z,12.70
2023-04-09T20:21:47.208Z,11.35
2023-04-09T20:23:58.753Z,12.40
2023-04-09T20:26:09.886Z,11.48
2023-04-09T20:28:19.500Z,12.77
2023-04-09T20:30:28.089Z,13.10
2023-04-09T20:32:36.504Z,11.23
2023-04-09T20:34:44.428Z,12.55
2023-04-09T20:36:52.659Z,12.20
2023-04-09T20:39:03.506Z,12.88
2023-04-09T20:41:11.951Z,12.70
2023-04-09T20:43:20.256Z,12.30
2023-04-09T20:45:28.353Z,13.23
2023-04-09T20:47:36.540Z,12.20
2023-04-09T20:49:46.041Z,12.10
2023-04-09T20:51:54.131Z,13.23
2023-04-09T20:54:04.797Z,13.52
2023-04-09T20:56:13.052Z,13.00
2023-04-09T20:58:22.386Z,13.63
2023-04-09T21:00:30.777Z,12.52
2023-04-09T21:02:38.753Z,12.98
2023-04-09T21:04:52.278Z,13.38
2023-04-09T21:07:00.305Z,12.82
2023-04-09T21:09:10.963Z,13.60
2023-04-09T21:11:18.867Z,12.60
2023-04-09T21:13:51.059Z,12.50
2023-04-09T21:16:02.830Z,13.80
2023-04-09T21:18:12.946Z,13.60
2023-04-09T21:20:20.984Z,14.70
2023-04-09T21:22:29.745Z,12.45
2023-04-09T21:24:41.440Z,12.18
2023-04-09T21:26:52.187Z,12.35
2023-04-09T21:29:01.772Z,13.23
2023-04-09T21:31:09.882Z,12.93
2023-04-09T21:33:18.629Z,13.70
2023-04-09T21:35:26.566Z,13.52
2023-04-09T21:37:34.826Z,15.25
2023-04-09T21:39:45.447Z,13.32
2023-04-09T21:41:53.305Z,13.52
2023-04-09T21:44:03.760Z,15.20
2023-04-09T21:46:11.612Z,14.13
2023-04-09T21:48:19.528Z,14.10
2023-04-09T21:50:27.388Z,13.90
2023-04-09T21:52:35.293Z,12.70
2023-04-09T21:54:46.742Z,12.75
2023-04-09T21:56:54.589Z,12.57
2023-04-09T21:59:02.569Z,15.35
2023-04-09T22:01:22.375Z,13.98
2023-04-09T22:03:36.574Z,12.93
2023-04-09T22:05:44.634Z,14.07
2023-04-09T22:07:52.533Z,13.70
2023-04-09T22:10:03.005Z,13.45
2023-04-09T22:12:10.969Z,15.15
2023-04-09T22:14:19.860Z,14.05
2023-04-09T22:16:28.535Z,15.23
2023-04-09T22:18:37.874Z,15.98
2023-04-09T22:20:45.707Z,16.25
2023-04-09T22:22:53.563Z,16.85
2023-04-09T22:25:04.449Z,13.45
2023-04-09T22:27:13.159Z,13.13
2023-04-09T22:29:21.052Z,13.80
2023-04-09T22:31:30.152Z,13.77
2023-04-09T22:33:38.120Z,14.85
2023-04-09T22:35:48.129Z,14.13
2023-04-09T22:37:56.960Z,14.77
2023-04-09T22:40:14.166Z,15.95
2023-04-09T22:42:21.988Z,14.20
2023-04-09T22:44:29.842Z,13.15
2023-04-09T22:46:37.862Z,14.85
2023-04-09T22:48:46.840Z,15.68
2023-04-09T22:50:54.778Z,16.77
2023-04-09T22:53:03.391Z,16.20
2023-04-09T22:55:14.692Z,15.88
2023-04-09T22:57:22.522Z,14.32
2023-04-09T22:59:39.237Z,16.13
2023-04-09T23:01:47.784Z,16.42
2023-04-09T23:03:55.807Z,17.17
2023-04-09T23:06:03.711Z,14.02
2023-04-09T23:08:11.755Z,14.85
2023-04-09T23:10:22.397Z,14.70
2023-04-09T23:12:30.295Z,13.90
2023-04-09T23:14:38.186Z,14.27
2023-04-09T23:16:46.079Z,15.48
2023-04-09T23:18:54.124Z,16.27
2023-04-09T23:21:06.274Z,14.10
2023-04-09T23:23:14.166Z,15.02
2023-04-09T23:25:24.645Z,18.05
2023-04-09T23:27:32.515Z,15.13
2023-04-09T23:29:40.378Z,15.25
2023-04-09T23:31:48.212Z,14.50
2023-04-09T23:33:56.282Z,16.90
2023-04-09T23:36:04.096Z,12.40
2023-04-09T23:38:12.139Z,14.30
2023-04-09T23:40:20.972Z,13.60
2023-04-09T23:42:33.206Z,14.18
2023-04-09T23:44:41.142Z,14.93
2023-04-09T23:46:49.039Z,15.15
2023-04-09T23:48:56.943Z,15.00
2023-04-09T23:51:04.733Z,13.23
2023-04-09T23:53:12.760Z,15.13
2023-04-09T23:55:21.157Z,14.80
2023-04-09T23:57:31.637Z,14.45
2023-04-09T23:59:39.501Z,14.10
